createdAt,value
2023-04-01T00:03:23.164Z,14.45
2023-04-01T00:07:05.071Z,12.40
2023-04-01T00:10:46.791Z,13.32
2023-04-01T00:14:28.540Z,10.00
2023-04-01T00:18:10.592Z,11.48
2023-04-01T00:21:53.203Z,14.48
2023-04-01T00:25:35.533Z,13.25
2023-04-01T00:29:17.542Z,14.40
2023-04-01T00:32:59.530Z,5.97
2023-04-01T00:36:41.329Z,8.38
2023-04-01T00:40:31.028Z,10.15
2023-04-01T00:44:23.519Z,8.98
2023-04-01T00:48:18.260Z,9.55
2023-04-01T00:52:02.522Z,11.25
2023-04-01T00:55:51.687Z,12.13
2023-04-01T00:59:38.224Z,12.35
2023-04-01T01:03:20.004Z,10.88
2023-04-01T01:07:31.874Z,10.50
2023-04-01T01:11:16.827Z,14.90
2023-04-01T01:15:18.728Z,17.40
2023-04-01T01:19:49.209Z,15.35
2023-04-01T01:24:04.226Z,17.08
2023-04-01T01:27:57.796Z,11.18
2023-04-01T01:31:51.436Z,12.30
2023-04-01T01:36:02.214Z,12.50
2023-04-01T01:39:47.154Z,9.25
2023-04-01T01:43:33.770Z,14.50
2023-04-01T01:47:17.955Z,18.10
2023-04-01T01:51:00.716Z,11.52
2023-04-01T01:54:53.267Z,12.95
2023-04-01T01:58:48.583Z,9.85
2023-04-01T02:02:33.035Z,13.10
2023-04-01T02:06:18.653Z,13.80
2023-04-01T02:10:00.850Z,9.82
2023-04-01T02:13:51.409Z,13.88
2023-04-01T02:17:35.292Z,10.63
2023-04-01T02:21:19.456Z,10.25
2023-04-01T02:25:08.824Z,9.10
2023-04-01T02:28:53.573Z,12.85
2023-04-01T02:32:38.979Z,8.45
2023-04-01T02:36:21.174Z,14.43
2023-04-01T02:40:08.480Z,8.55
2023-04-01T02:43:50.213Z,11.00
2023-04-01T02:47:32.041Z,16.52
2023-04-01T02:51:13.792Z,13.48
2023-04-01T02:54:56.173Z,10.20
2023-04-01T02:58:37.865Z,15.70
2023-04-01T03:02:19.672Z,11.82
2023-04-01T03:06:09.945Z,15.38
2023-04-01T03:09:51.785Z,10.73
2023-04-01T03:13:33.593Z,16.65
2023-04-01T03:17:15.311Z,8.77
2023-04-01T03:20:57.073Z,14.07
2023-04-01T03:24:38.800Z,12.43
2023-04-01T03:28:20.630Z,13.18
2023-04-01T03:32:02.359Z,10.10
2023-04-01T03:35:44.080Z,9.55
2023-04-01T03:39:26.300Z,9.95
2023-04-01T03:43:09.407Z,9.73
2023-04-01T03:46:51.295Z,12.57
2023-04-01T03:50:35.365Z,8.85
2023-04-01T03:54:18.057Z,10.10
2023-04-01T03:58:00.547Z,8.35
2023-04-01T04:01:42.540Z,8.75
2023-04-01T04:05:28.066Z,10.07
2023-04-01T04:09:09.828Z,13.70
2023-04-01T04:12:52.608Z,6.53
2023-04-01T04:16:37.670Z,9.88
2023-04-01T04:20:19.450Z,12.13
2023-04-01T04:24:02.426Z,5.95
2023-04-01T04:27:44.560Z,5.25
2023-04-01T04:31:27.614Z,6.53
2023-04-01T04:35:09.734Z,11.75
2023-04-01T04:38:52.026Z,7.75
2023-04-01T04:42:33.837Z,6.43
2023-04-01T04:46:15.669Z,6.97
2023-04-01T04:49:57.456Z,11.75
2023-04-01T04:53:39.184Z,7.32
2023-04-01T04:57:20.933Z,10.13
2023-04-01T05:01:14.270Z,10.07
2023-04-01T05:04:56.233Z,8.20
2023-04-01T05:08:39.772Z,13.48
2023-04-01T05:12:21.483Z,9.98
2023-04-01T05:16:03.734Z,8.55
2023-04-01T05:19:45.559Z,3.50
2023-04-01T05:23:27.265Z,11.20
2023-04-01T05:27:08.995Z,8.98
2023-04-01T05:30:50.943Z,8.40
2023-04-01T05:34:32.761Z,7.38
2023-04-01T05:38:14.466Z,12.45
2023-04-01T05:41:56.234Z,11.48
2023-04-01T05:45:38.449Z,8.52
2023-04-01T05:49:20.159Z,9.75
2023-04-01T05:53:01.903Z,10.50
2023-04-01T05:56:43.645Z,14.80
2023-04-01T06:00:25.361Z,8.68
2023-04-01T06:04:07.347Z,10.02
2023-04-01T06:07:49.506Z,12.93
2023-04-01T06:11:58.257Z,12.93
2023-04-01T06:16:05.844Z,10.18
2023-04-01T06:20:17.637Z,12.30
2023-04-01T06:24:28.987Z,19.25
2023-04-01T06:28:38.334Z,13.68
2023-04-01T06:32:38.759Z,10.65
2023-04-01T06:36:35.771Z,18.95
2023-04-01T06:40:23.506Z,12.77
2023-04-01T06:44:34.636Z,9.45
2023-04-01T06:48:22.911Z,10.35
2023-04-01T06:52:32.821Z,11.52
2023-04-01T06:56:19.234Z,18.73
2023-04-01T07:00:12.154Z,13.98
2023-04-01T07:04:00.212Z,7.70
2023-04-01T07:07:49.616Z,9.30
2023-04-01T07:11:37.721Z,10.20
2023-04-01T07:15:28.789Z,10.70
2023-04-01T07:19:41.271Z,10.43
2023-04-01T07:23:30.470Z,9.55
2023-04-01T07:27:14.379Z,10.15
2023-04-01T07:31:16.809Z,8.70
2023-04-01T07:35:13.550Z,8.77
2023-04-01T07:39:17.539Z,8.38
2023-04-01T07:43:17.001Z,8.25
2023-04-01T07:47:34.107Z,10.73
2023-04-01T07:51:23.285Z,9.45
2023-04-01T07:55:10.497Z,7.07
2023-04-01T07:59:01.195Z,16.47
2023-04-01T08:03:04.086Z,10.60
2023-04-01T08:07:04.476Z,5.28
2023-04-01T08:11:08.079Z,9.65
2023-04-01T08:15:13.595Z,5.93
2023-04-01T08:19:30.992Z,7.80
2023-04-01T08:23:23.697Z,5.80
2023-04-01T08:27:15.963Z,9.60
2023-04-01T08:31:20.140Z,6.38
2023-04-01T08:35:56.149Z,9.65
2023-04-01T08:39:49.335Z,8.25
2023-04-01T08:44:03.063Z,6.03
2023-04-01T08:48:09.541Z,6.72
2023-04-01T08:52:44.180Z,8.18
2023-04-01T08:56:40.222Z,5.03
2023-04-01T09:00:36.881Z,9.52
2023-04-01T09:04:37.650Z,11.05
2023-04-01T09:08:33.410Z,6.15
2023-04-01T09:12:37.055Z,5.50
2023-04-01T09:16:56.006Z,1.63
2023-04-01T09:20:52.529Z,5.60
2023-04-01T09:25:01.383Z,4.65
2023-04-01T09:32:54.147Z,2.28
2023-04-01T09:37:14.924Z,2.10
2023-04-01T09:41:07.589Z,4.50
2023-04-01T09:45:06.175Z,1.35
2023-04-01T09:48:56.054Z,0.80
2023-04-01T09:52:49.970Z,1.92
2023-04-01T09:57:10.468Z,1.48
2023-04-01T10:01:13.802Z,1.13
2023-04-01T10:05:23.596Z,2.40
2023-04-01T10:09:42.960Z,0.77
2023-04-01T10:14:02.532Z,0.80
2023-04-01T10:18:06.135Z,0.90
2023-04-01T10:21:53.781Z,0.60
2023-04-01T10:25:43.169Z,1.95
2023-04-01T10:29:42.660Z,1.08
2023-04-01T10:33:42.887Z,1.10
2023-04-01T10:37:40.781Z,1.33
2023-04-01T10:41:39.648Z,0.80
2023-04-01T10:45:36.959Z,1.60
2023-04-01T10:49:52.602Z,1.40
2023-04-01T10:53:46.966Z,1.15
2023-04-01T10:58:04.963Z,0.80
2023-04-01T11:02:12.271Z,0.98
2023-04-01T11:06:31.882Z,1.40
2023-04-01T11:10:24.902Z,1.67
2023-04-01T11:14:31.172Z,1.40
2023-04-01T11:18:41.622Z,1.08
2023-04-01T11:22:49.728Z,1.33
2023-04-01T11:26:49.861Z,0.95
2023-04-01T11:30:56.663Z,2.65
2023-04-01T11:34:41.741Z,3.22
2023-04-01T11:38:59.891Z,0.93
2023-04-01T11:42:55.207Z,1.10
2023-04-01T11:47:01.901Z,1.40
2023-04-01T11:51:10.331Z,3.45
2023-04-01T11:55:14.243Z,2.03
2023-04-01T11:59:17.687Z,1.60
2023-04-01T12:03:36.763Z,1.70
2023-04-01T12:11:23.765Z,0.90
2023-04-01T12:15:30.310Z,2.65
2023-04-01T12:19:27.361Z,1.10
2023-04-01T12:23:30.422Z,1.40
2023-04-01T12:27:27.558Z,1.33
2023-04-01T12:31:32.393Z,1.15
2023-04-01T12:35:25.330Z,1.70
2023-04-01T12:39:21.238Z,1.90
2023-04-01T12:43:22.433Z,1.80
2023-04-01T12:47:39.844Z,2.00
2023-04-01T12:52:03.363Z,2.75
2023-04-01T12:55:46.341Z,5.35
2023-04-01T12:59:40.096Z,1.90
2023-04-01T13:03:21.798Z,2.72
2023-04-01T13:07:25.487Z,2.80
2023-04-01T13:11:16.606Z,3.83
2023-04-01T13:15:07.217Z,4.60
2023-04-01T13:19:07.804Z,4.20
2023-04-01T13:23:11.106Z,4.10
2023-04-01T13:27:07.840Z,7.05
2023-04-01T13:31:07.181Z,7.70
2023-04-01T13:35:16.754Z,10.35
2023-04-01T13:39:01.971Z,12.40
2023-04-01T13:42:54.699Z,7.95
2023-04-01T13:46:55.801Z,9.77
2023-04-01T13:51:03.206Z,7.90
2023-04-01T13:55:07.772Z,7.97
2023-04-01T13:59:01.926Z,7.85
2023-04-01T14:03:01.927Z,6.57
2023-04-01T14:07:08.523Z,6.15
2023-04-01T14:10:58.386Z,9.70
2023-04-01T14:15:22.518Z,6.20
2023-04-01T14:19:42.573Z,8.10
2023-04-01T14:23:33.206Z,6.97
2023-04-01T14:27:39.524Z,5.68
2023-04-01T14:31:52.282Z,7.35
2023-04-01T14:35:37.559Z,8.23
2023-04-01T14:39:43.712Z,5.05
2023-04-01T14:43:50.647Z,5.47
2023-04-01T14:47:47.417Z,6.32
2023-04-01T14:51:29.089Z,8.68
2023-04-01T14:55:31.019Z,4.10
2023-04-01T14:59:27.079Z,4.07
2023-04-01T15:03:46.230Z,3.00
2023-04-01T15:07:59.424Z,8.60
2023-04-01T15:12:02.745Z,4.68
2023-04-01T15:16:06.396Z,2.45
2023-04-01T15:20:08.133Z,4.65
2023-04-01T15:23:58.226Z,2.90
2023-04-01T15:28:04.108Z,2.85
2023-04-01T15:31:49.752Z,2.88
2023-04-01T15:35:49.715Z,2.42
2023-04-01T15:39:39.746Z,4.00
2023-04-01T15:43:33.454Z,6.65
2023-04-01T15:47:27.069Z,3.65
2023-04-01T15:51:45.796Z,3.17
2023-04-01T15:55:55.419Z,2.90
2023-04-01T16:00:01.450Z,3.85
2023-04-01T16:04:17.328Z,3.83
2023-04-01T16:08:33.219Z,4.47
2023-04-01T16:12:47.894Z,4.93
2023-04-01T16:16:54.733Z,2.88
2023-04-01T16:20:51.118Z,5.70
2023-04-01T16:25:11.362Z,4.80
2023-04-01T16:29:11.432Z,2.60
2023-04-01T16:33:16.022Z,3.72
2023-04-01T16:37:37.119Z,3.83
2023-04-01T16:41:26.416Z,4.63
2023-04-01T16:45:08.101Z,3.75
2023-04-01T16:49:00.742Z,7.13
2023-04-01T16:52:54.507Z,3.42
2023-04-01T16:56:54.930Z,5.05
2023-04-01T17:00:50.863Z,2.80
2023-04-01T17:04:49.710Z,5.10
2023-04-01T17:08:42.647Z,2.60
2023-04-01T17:12:36.470Z,2.42
2023-04-01T17:16:36.106Z,2.65
2023-04-01T17:20:56.865Z,4.63
2023-04-01T17:24:47.664Z,4.15
2023-04-01T17:28:46.842Z,3.47
2023-04-01T17:32:47.044Z,4.05
2023-04-01T17:37:02.703Z,5.20
2023-04-01T17:40:59.443Z,2.17
2023-04-01T17:44:54.893Z,2.75
2023-04-01T17:49:17.416Z,3.55
2023-04-01T17:53:10.932Z,4.97
2023-04-01T17:57:21.733Z,5.50
2023-04-01T18:01:22.907Z,5.20
2023-04-01T18:05:26.125Z,7.68
2023-04-01T18:09:31.844Z,3.53
2023-04-01T18:13:22.570Z,6.28
2023-04-01T18:17:24.871Z,4.30
2023-04-01T18:21:27.593Z,4.40
2023-04-01T18:25:37.898Z,3.22
2023-04-01T18:29:31.872Z,3.63
2023-04-01T18:33:19.367Z,3.97
2023-04-01T18:37:15.935Z,3.92
2023-04-01T18:41:35.650Z,2.10
2023-04-01T18:45:28.988Z,2.60
2023-04-01T18:49:30.054Z,2.80
2023-04-01T18:53:21.281Z,2.83
2023-04-01T18:57:17.811Z,3.88
2023-04-01T19:01:24.956Z,2.97
2023-04-01T19:05:20.861Z,3.83
2023-04-01T19:09:18.233Z,3.58
2023-04-01T19:13:18.671Z,22.83
2023-04-01T19:17:27.551Z,3.53
2023-04-01T19:21:17.290Z,5.20
2023-04-01T19:25:02.030Z,3.03
2023-04-01T19:28:43.736Z,2.30
2023-04-01T19:32:47.055Z,2.58
2023-04-01T19:36:55.592Z,3.53
2023-04-01T19:40:52.921Z,6.22
2023-04-01T19:44:49.984Z,11.25
2023-04-01T19:48:56.605Z,4.20
2023-04-01T19:52:42.142Z,4.63
2023-04-01T19:56:27.261Z,3.25
2023-04-01T20:00:23.545Z,2.88
2023-04-01T20:04:11.797Z,3.50
2023-04-01T20:08:00.314Z,5.38
2023-04-01T20:11:56.948Z,5.50
2023-04-01T20:15:48.629Z,2.63
2023-04-01T20:19:37.089Z,5.82
2023-04-01T20:24:00.242Z,3.22
2023-04-01T20:28:10.803Z,2.20
2023-04-01T20:32:07.292Z,3.70
2023-04-01T20:36:13.154Z,4.25
2023-04-01T20:40:06.871Z,5.88
2023-04-01T20:44:22.482Z,3.90
2023-04-01T20:48:35.364Z,5.03
2023-04-01T20:52:28.436Z,3.88
2023-04-01T20:56:34.115Z,2.22
2023-04-01T21:00:32.621Z,2.47
2023-04-01T21:08:19.108Z,1.70
2023-04-01T21:12:07.655Z,2.03
2023-04-01T21:16:01.363Z,1.45
2023-04-01T21:20:12.838Z,2.05
2023-04-01T21:24:29.524Z,2.88
2023-04-01T21:28:27.971Z,1.52
2023-04-01T21:36:49.038Z,2.30
2023-04-01T21:40:40.458Z,2.38
2023-04-01T21:44:32.865Z,2.42
2023-04-01T21:48:24.572Z,2.65
2023-04-01T21:52:30.539Z,3.25
2023-04-01T21:56:40.604Z,2.97
2023-04-01T22:00:36.013Z,3.25
2023-04-01T22:04:32.782Z,3.83
2023-04-01T22:08:32.163Z,5.18
2023-04-01T22:12:25.277Z,2.92
2023-04-01T22:16:47.882Z,2.60
2023-04-01T22:20:36.478Z,2.17
2023-04-01T22:24:30.211Z,2.35
2023-04-01T22:28:17.177Z,2.63
2023-04-01T22:32:12.359Z,2.03
2023-04-01T22:36:05.646Z,2.17
2023-04-01T22:40:25.608Z,2.63
2023-04-01T22:44:35.931Z,2.92
2023-04-01T22:48:29.586Z,4.30
2023-04-01T22:52:33.499Z,2.55
2023-04-01T22:56:28.489Z,2.13
2023-04-01T23:00:42.180Z,3.30
2023-04-01T23:04:34.533Z,1.77
2023-04-01T23:08:43.102Z,2.00
2023-04-01T23:12:27.189Z,3.45
2023-04-01T23:16:10.435Z,3.78
2023-04-01T23:20:11.616Z,3.05
2023-04-01T23:24:20.366Z,2.45
2023-04-01T23:28:17.101Z,2.15
2023-04-01T23:32:04.186Z,3.13
2023-04-01T23:36:08.507Z,3.13
2023-04-01T23:39:53.026Z,2.00
2023-04-01T23:43:39.465Z,4.40
2023-04-01T23:47:34.585Z,4.25
2023-04-01T23:51:26.121Z,2.95
2023-04-01T23:55:18.469Z,4.35
2023-04-01T23:59:00.341Z,1.80
